Dai2kousei — JD2542 — position and weather

sailwx.info

Track history (hours):
 
Tides and Currents Weather Stations Pressure Air Temp Water Temp Dewpoint Dewpoint Depression Visibility Wind Speed Wind Dir Waves Ship Positions

Dai2kousei

Last reported at 2016-Aug-14 22:27 UTC. Time now 2016-Aug-26 08:32 UTC.
Position N 35°07' E 139°42'.
Warning: this ship's position is 11 days out of date.

Length 77 m; draft 4.7 m.

MMSI: 431000467.

Date/timePositionNaut miles runAvg speedWind from/ knotsBaromVisibWave heightAir tempDewpointWater temp
2016-Aug-14 22:27N 35°07' E 139°42'1010.6
2016-Aug-14 21:33N 35°16' E 139°45'1010.1
2016-Aug-14 20:33N 35°27' E 139°45'3 2.5
2016-Aug-14 19:33N 35°29' E 139°44'0 0.0
2016-Aug-14 18:33N 35°29' E 139°44'0 0.0
2016-Aug-14 17:33N 35°29' E 139°44'0 0.0
2016-Aug-14 16:33N 35°29' E 139°44'0 0.0
2016-Aug-14 15:33N 35°29' E 139°44'0 0.0
2016-Aug-14 14:33N 35°29' E 139°44'0 0.0
2016-Aug-14 13:33N 35°29' E 139°44'0 0.0
2016-Aug-14 12:33N 35°29' E 139°44'0 0.0
2016-Aug-14 11:33N 35°29' E 139°44'3 3.2
2016-Aug-14 10:34N 35°26' E 139°46'1110.6
2016-Aug-14 09:33N 35°16' E 139°47'  
2016-Aug-09 00:06N 34°42' E 139°05'911.1
2016-Aug-08 23:16N 34°47' E 139°14'810.9
2016-Aug-08 22:33N 34°53' E 139°21'1010.6
2016-Aug-08 21:33N 34°60' E 139°31'1111.4
2016-Aug-08 20:33N 35°07' E 139°42'1010.2
2016-Aug-08 19:33N 35°17' E 139°45'7 6.8
2016-Aug-08 18:33N 35°22' E 139°40'0 0.0
2016-Aug-08 17:33N 35°22' E 139°40'0 0.0
2016-Aug-08 16:33N 35°22' E 139°40'0 0.0
2016-Aug-08 15:33N 35°22' E 139°40'0 0.0
2016-Aug-08 14:33N 35°22' E 139°40'0 0.0
2016-Aug-08 13:33N 35°22' E 139°40'0 0.0
2016-Aug-08 12:33N 35°22' E 139°40'0 0.0
2016-Aug-08 11:33N 35°22' E 139°40'0 0.0
2016-Aug-08 10:33N 35°22' E 139°40'0 0.0
2016-Aug-08 09:33N 35°22' E 139°40'1 1.4
2016-Aug-08 08:33N 35°23' E 139°41'6 6.3
2016-Aug-08 07:33N 35°29' E 139°44'0 0.0
2016-Aug-08 06:33N 35°29' E 139°44'0 0.0
2016-Aug-08 05:33N 35°29' E 139°44'0 0.0
2016-Aug-08 04:33N 35°29' E 139°44'0 0.0
2016-Aug-08 03:33N 35°29' E 139°44'0 0.0
2016-Aug-08 02:33N 35°29' E 139°44'0 0.0
2016-Aug-08 01:33N 35°29' E 139°44'0 0.0
2016-Aug-08 00:33N 35°29' E 139°44'0 0.0
2016-Aug-07 23:33N 35°29' E 139°44'0 0.0
2016-Aug-07 22:33N 35°29' E 139°44'0 0.0
2016-Aug-07 21:33N 35°29' E 139°44'0 0.0
2016-Aug-07 20:33N 35°29' E 139°44'0 0.0
2016-Aug-07 19:33N 35°29' E 139°44'0 0.0
2016-Aug-07 18:33N 35°29' E 139°44'0 0.0
2016-Aug-07 17:33N 35°29' E 139°44'0 0.0
2016-Aug-07 16:33N 35°29' E 139°44'0 0.0
2016-Aug-07 15:33N 35°29' E 139°44'0 0.0
2016-Aug-07 14:33N 35°29' E 139°44'0 0.0
2016-Aug-07 13:33N 35°29' E 139°44'0 0.0
2016-Aug-07 12:33N 35°29' E 139°44'0 0.2
2016-Aug-07 11:33N 35°29' E 139°44'9 8.9
2016-Aug-07 10:33N 35°20' E 139°44'1010.2
2016-Aug-07 09:33N 35°10' E 139°46'  
Track history (hours):
 
Tides and Currents Weather Stations Pressure Air Temp Water Temp Dewpoint Dewpoint Depression Visibility Wind Speed Wind Dir Waves Ship Positions

Dai2kousei

Last reported at 2016-Aug-14 22:27 UTC. Time now 2016-Aug-26 08:32 UTC.
Position N 35°07' E 139°42'.
Warning: this ship's position is 11 days out of date.

Length 77 m; draft 4.7 m.

MMSI: 431000467.

Date/timePositionNaut miles runAvg speedWind from/ knotsBaromVisibWave heightAir tempDewpointWater temp
2016-Aug-14 22:27N 35°07' E 139°42'1010.6
2016-Aug-14 21:33N 35°16' E 139°45'1010.1
2016-Aug-14 20:33N 35°27' E 139°45'3 2.5
2016-Aug-14 19:33N 35°29' E 139°44'0 0.0
2016-Aug-14 18:33N 35°29' E 139°44'0 0.0
2016-Aug-14 17:33N 35°29' E 139°44'0 0.0
2016-Aug-14 16:33N 35°29' E 139°44'0 0.0
2016-Aug-14 15:33N 35°29' E 139°44'0 0.0
2016-Aug-14 14:33N 35°29' E 139°44'0 0.0
2016-Aug-14 13:33N 35°29' E 139°44'0 0.0
2016-Aug-14 12:33N 35°29' E 139°44'0 0.0
2016-Aug-14 11:33N 35°29' E 139°44'3 3.2
2016-Aug-14 10:34N 35°26' E 139°46'1110.6
2016-Aug-14 09:33N 35°16' E 139°47'  
2016-Aug-09 00:06N 34°42' E 139°05'911.1
2016-Aug-08 23:16N 34°47' E 139°14'810.9
2016-Aug-08 22:33N 34°53' E 139°21'1010.6
2016-Aug-08 21:33N 34°60' E 139°31'1111.4
2016-Aug-08 20:33N 35°07' E 139°42'1010.2
2016-Aug-08 19:33N 35°17' E 139°45'7 6.8
2016-Aug-08 18:33N 35°22' E 139°40'0 0.0
2016-Aug-08 17:33N 35°22' E 139°40'0 0.0
2016-Aug-08 16:33N 35°22' E 139°40'0 0.0
2016-Aug-08 15:33N 35°22' E 139°40'0 0.0
2016-Aug-08 14:33N 35°22' E 139°40'0 0.0
2016-Aug-08 13:33N 35°22' E 139°40'0 0.0
2016-Aug-08 12:33N 35°22' E 139°40'0 0.0
2016-Aug-08 11:33N 35°22' E 139°40'0 0.0
2016-Aug-08 10:33N 35°22' E 139°40'0 0.0
2016-Aug-08 09:33N 35°22' E 139°40'1 1.4
2016-Aug-08 08:33N 35°23' E 139°41'6 6.3
2016-Aug-08 07:33N 35°29' E 139°44'0 0.0
2016-Aug-08 06:33N 35°29' E 139°44'0 0.0
2016-Aug-08 05:33N 35°29' E 139°44'0 0.0
2016-Aug-08 04:33N 35°29' E 139°44'0 0.0
2016-Aug-08 03:33N 35°29' E 139°44'0 0.0
2016-Aug-08 02:33N 35°29' E 139°44'0 0.0
2016-Aug-08 01:33N 35°29' E 139°44'0 0.0
2016-Aug-08 00:33N 35°29' E 139°44'0 0.0
2016-Aug-07 23:33N 35°29' E 139°44'0 0.0
2016-Aug-07 22:33N 35°29' E 139°44'0 0.0
2016-Aug-07 21:33N 35°29' E 139°44'0 0.0
2016-Aug-07 20:33N 35°29' E 139°44'0 0.0
2016-Aug-07 19:33N 35°29' E 139°44'0 0.0
2016-Aug-07 18:33N 35°29' E 139°44'0 0.0
2016-Aug-07 17:33N 35°29' E 139°44'0 0.0
2016-Aug-07 16:33N 35°29' E 139°44'0 0.0
2016-Aug-07 15:33N 35°29' E 139°44'0 0.0
2016-Aug-07 14:33N 35°29' E 139°44'0 0.0
2016-Aug-07 13:33N 35°29' E 139°44'0 0.0
2016-Aug-07 12:33N 35°29' E 139°44'0 0.2
2016-Aug-07 11:33N 35°29' E 139°44'9 8.9
2016-Aug-07 10:33N 35°20' E 139°44'1010.2
2016-Aug-07 09:33N 35°10' E 139°46'  

Dump ship's entire track history